createdAt,value
2019-06-01T00:01:20.474Z,6.17
2019-06-01T00:03:48.603Z,6.43
2019-06-01T00:06:16.341Z,10.10
2019-06-01T00:08:43.446Z,8.27
2019-06-01T00:11:10.491Z,9.13
2019-06-01T00:13:39.546Z,5.67
2019-06-01T00:16:06.753Z,7.10
2019-06-01T00:18:34.144Z,9.40
2019-06-01T00:21:01.628Z,5.73
2019-06-01T00:23:29.022Z,8.83
2019-06-01T00:25:56.531Z,5.03
2019-06-01T00:28:23.586Z,4.90
2019-06-01T00:30:52.060Z,5.90
2019-06-01T00:33:19.459Z,5.60
2019-06-01T00:35:47.448Z,5.17
2019-06-01T00:38:14.713Z,5.10
2019-06-01T00:40:41.841Z,6.23
2019-06-01T00:43:09.403Z,4.60
2019-06-01T00:45:36.382Z,4.63
2019-06-01T00:48:03.669Z,5.70
2019-06-01T00:50:30.781Z,4.47
2019-06-01T00:52:58.164Z,4.63
2019-06-01T00:55:25.864Z,5.20
2019-06-01T00:57:53.968Z,4.80
2019-06-01T01:00:21.365Z,5.00
2019-06-01T01:02:50.130Z,8.10
2019-06-01T01:05:18.241Z,4.87
2019-06-01T01:07:46.600Z,4.57
2019-06-01T01:10:14.605Z,5.47
2019-06-01T01:12:59.976Z,8.23
2019-06-01T01:15:27.171Z,6.30
2019-06-01T01:17:54.298Z,7.50
2019-06-01T01:20:21.588Z,7.83
2019-06-01T01:22:50.169Z,7.13
2019-06-01T01:25:17.688Z,6.13
2019-06-01T01:27:46.513Z,4.27
2019-06-01T01:30:13.983Z,5.73
2019-06-01T01:32:41.286Z,6.17
2019-06-01T01:35:08.557Z,6.30
2019-06-01T01:37:35.866Z,10.17
2019-06-01T01:40:03.509Z,5.13
2019-06-01T01:42:31.361Z,6.47
2019-06-01T01:44:58.668Z,8.83
2019-06-01T01:47:25.782Z,7.10
2019-06-01T01:49:54.079Z,9.10
2019-06-01T01:52:21.743Z,6.70
2019-06-01T01:54:49.038Z,6.20
2019-06-01T01:57:16.451Z,5.70
2019-06-01T01:59:43.753Z,5.00
2019-06-01T02:02:11.021Z,6.80
2019-06-01T02:04:38.589Z,5.33
2019-06-01T02:07:06.172Z,6.63
2019-06-01T02:09:33.314Z,5.30
2019-06-01T02:12:01.970Z,9.77
2019-06-01T02:14:29.292Z,7.77
2019-06-01T02:16:58.002Z,4.53
2019-06-01T02:19:25.578Z,7.33
2019-06-01T02:21:54.369Z,6.23
2019-06-01T02:24:21.945Z,7.40
2019-06-01T02:26:49.248Z,10.90
2019-06-01T02:29:16.669Z,7.10
2019-06-01T02:31:43.815Z,6.90
2019-06-01T02:34:10.966Z,8.40
2019-06-01T02:36:38.143Z,6.97
2019-06-01T02:39:06.129Z,7.13
2019-06-01T02:41:33.239Z,11.00
2019-06-01T02:44:01.676Z,5.10
2019-06-01T02:46:29.407Z,6.23
2019-06-01T02:48:57.401Z,5.73
2019-06-01T02:51:24.718Z,9.93
2019-06-01T02:53:51.909Z,5.53
2019-06-01T02:56:19.617Z,8.00
2019-06-01T02:58:46.870Z,5.90
2019-06-01T03:01:30.481Z,6.87
2019-06-01T03:03:59.511Z,5.33
2019-06-01T03:06:27.989Z,6.07
2019-06-01T03:08:57.668Z,5.83
2019-06-01T03:11:26.209Z,9.50
2019-06-01T03:13:55.121Z,5.83
2019-06-01T03:16:25.343Z,5.73
2019-06-01T03:18:55.491Z,8.70
2019-06-01T03:21:26.670Z,5.87
2019-06-01T03:23:57.306Z,6.33
2019-06-01T03:26:27.371Z,8.20
2019-06-01T03:28:58.211Z,6.10
2019-06-01T03:31:25.593Z,8.43
2019-06-01T03:33:53.113Z,11.83
2019-06-01T03:36:21.414Z,6.50
2019-06-01T03:38:48.816Z,10.90
2019-06-01T03:41:16.472Z,7.60
2019-06-01T03:43:43.597Z,6.37
2019-06-01T03:46:11.129Z,6.90
2019-06-01T03:48:38.313Z,7.30
2019-06-01T03:51:05.861Z,7.97
2019-06-01T03:53:32.998Z,7.07
2019-06-01T03:56:01.713Z,5.90
2019-06-01T03:58:29.420Z,7.10
2019-06-01T04:00:56.762Z,4.33
2019-06-01T04:03:24.625Z,6.50
2019-06-01T04:05:51.838Z,6.70
2019-06-01T04:08:18.987Z,8.10
2019-06-01T04:10:46.470Z,6.57
2019-06-01T04:13:13.613Z,5.90
2019-06-01T04:15:40.733Z,5.70
2019-06-01T04:18:08.355Z,6.70
2019-06-01T04:20:35.521Z,4.93
2019-06-01T04:23:04.467Z,9.17
2019-06-01T04:25:32.061Z,9.57
2019-06-01T04:27:59.563Z,8.40
2019-06-01T04:30:26.798Z,5.80
2019-06-01T04:32:54.382Z,6.10
2019-06-01T04:35:21.804Z,7.10
2019-06-01T04:37:49.161Z,7.00
2019-06-01T04:40:16.401Z,5.20
2019-06-01T04:42:43.835Z,4.33
2019-06-01T04:45:12.595Z,6.30
2019-06-01T04:47:40.002Z,4.90
2019-06-01T04:50:08.446Z,6.50
2019-06-01T04:52:37.195Z,5.03
2019-06-01T04:55:05.182Z,6.30
2019-06-01T04:57:32.457Z,5.80
2019-06-01T05:00:00.071Z,4.97
2019-06-01T05:02:27.543Z,5.43
2019-06-01T05:04:54.738Z,7.23
2019-06-01T05:07:22.495Z,19.07
2019-06-01T05:09:50.027Z,13.97
2019-06-01T05:12:17.342Z,10.10
2019-06-01T05:14:45.201Z,7.53
2019-06-01T05:17:13.536Z,7.50
2019-06-01T05:19:42.215Z,5.07
2019-06-01T05:22:10.486Z,8.83
2019-06-01T05:24:38.233Z,6.00
2019-06-01T05:27:06.885Z,6.33
2019-06-01T05:29:34.019Z,10.33
2019-06-01T05:32:01.817Z,60.70
2019-06-01T05:34:30.203Z,43.67
2019-06-01T05:36:57.649Z,25.90
2019-06-01T05:39:24.802Z,14.17
2019-06-01T05:41:52.270Z,10.20
2019-06-01T05:44:19.488Z,8.90
2019-06-01T05:46:47.052Z,7.23
2019-06-01T05:49:14.747Z,7.47
2019-06-01T05:51:43.817Z,5.30
2019-06-01T05:54:11.111Z,4.73
2019-06-01T05:56:39.957Z,22.83
2019-06-01T05:59:07.541Z,41.13
2019-06-01T06:01:35.113Z,29.23
2019-06-01T06:04:02.350Z,23.40
2019-06-01T06:06:30.047Z,15.00
2019-06-01T06:08:57.544Z,7.90
2019-06-01T06:11:24.995Z,7.00
2019-06-01T06:13:52.021Z,10.97
2019-06-01T06:16:20.727Z,4.43
2019-06-01T06:18:48.373Z,5.10
2019-06-01T06:21:16.086Z,5.10
2019-06-01T06:23:43.477Z,4.80
2019-06-01T06:26:10.964Z,3.17
2019-06-01T06:28:38.204Z,4.77
2019-06-01T06:31:06.006Z,3.70
2019-06-01T06:33:36.740Z,4.10
2019-06-01T06:36:02.618Z,3.63
2019-06-01T06:38:29.991Z,4.03
2019-06-01T06:40:57.828Z,4.20
2019-06-01T06:43:32.685Z,3.93
2019-06-01T06:45:53.794Z,2.90
2019-06-01T06:48:21.315Z,3.03
2019-06-01T06:50:48.559Z,3.50
2019-06-01T06:53:25.511Z,3.00
2019-06-01T06:55:45.579Z,4.40
2019-06-01T06:58:13.006Z,10.47
2019-06-01T07:00:40.395Z,13.20
2019-06-01T07:03:07.880Z,11.30
2019-06-01T07:05:34.886Z,8.83
2019-06-01T07:08:02.474Z,8.47
2019-06-01T07:10:29.861Z,5.87
2019-06-01T07:12:57.453Z,4.47
2019-06-01T07:15:25.554Z,4.00
2019-06-01T07:17:52.991Z,3.80
2019-06-01T07:20:21.469Z,3.27
2019-06-01T07:22:50.018Z,4.30
2019-06-01T07:25:17.341Z,2.60
2019-06-01T07:27:44.938Z,7.77
2019-06-01T07:30:12.628Z,9.73
2019-06-01T07:32:39.739Z,22.67
2019-06-01T07:35:08.205Z,18.53
2019-06-01T07:37:35.652Z,12.80
2019-06-01T07:40:03.349Z,11.30
2019-06-01T07:42:30.625Z,8.00
2019-06-01T07:44:58.051Z,7.53
2019-06-01T07:47:25.487Z,6.17
2019-06-01T07:49:53.421Z,5.00
2019-06-01T07:52:22.257Z,4.13
2019-06-01T07:54:50.740Z,3.47
2019-06-01T07:57:18.033Z,3.73
2019-06-01T07:59:45.325Z,8.13
2019-06-01T08:02:13.111Z,10.80
2019-06-01T08:04:53.219Z,10.23
2019-06-01T08:07:10.237Z,7.20
2019-06-01T08:09:37.890Z,6.03
2019-06-01T08:12:05.299Z,4.43
2019-06-01T08:14:32.906Z,4.77
2019-06-01T08:17:00.133Z,3.23
2019-06-01T08:19:28.049Z,2.57
2019-06-01T08:21:55.905Z,3.63
2019-06-01T08:27:05.702Z,3.10
2019-06-01T08:29:33.210Z,4.13
2019-06-01T08:32:00.652Z,2.13
2019-06-01T08:34:29.027Z,4.53
2019-06-01T08:36:56.890Z,2.30
2019-06-01T08:39:25.230Z,2.27
2019-06-01T08:41:53.125Z,1.70
2019-06-01T08:44:20.389Z,1.40
2019-06-01T08:46:48.066Z,1.77
2019-06-01T08:49:15.089Z,2.77
2019-06-01T08:51:42.413Z,1.70
2019-06-01T08:54:09.812Z,1.63
2019-06-01T08:56:36.955Z,1.67
2019-06-01T08:59:04.253Z,2.20
2019-06-01T09:01:32.756Z,1.93
2019-06-01T09:04:00.486Z,1.60
2019-06-01T09:06:29.111Z,1.50
2019-06-01T09:08:56.889Z,1.70
2019-06-01T09:11:25.089Z,2.40
2019-06-01T09:13:52.804Z,2.10
2019-06-01T09:16:20.301Z,1.90
2019-06-01T09:18:47.499Z,1.67
2019-06-01T09:21:14.702Z,1.17
2019-06-01T09:23:41.918Z,1.30
2019-06-01T09:26:09.038Z,1.40
2019-06-01T09:28:36.329Z,1.57
2019-06-01T09:31:04.206Z,1.60
2019-06-01T09:33:32.222Z,1.63
2019-06-01T09:35:59.594Z,1.70
2019-06-01T09:38:27.722Z,1.63
2019-06-01T09:40:55.158Z,2.13
2019-06-01T09:43:22.425Z,1.73
2019-06-01T09:45:53.125Z,3.00
2019-06-01T09:48:19.097Z,1.60
2019-06-01T09:50:46.753Z,2.87
2019-06-01T09:53:14.881Z,4.70
2019-06-01T09:55:42.294Z,2.23
2019-06-01T09:58:09.399Z,1.70
2019-06-01T10:00:41.477Z,1.93
2019-06-01T10:03:06.031Z,1.53
2019-06-01T10:05:34.684Z,2.10
2019-06-01T10:08:02.918Z,1.67
2019-06-01T10:10:31.871Z,1.37
2019-06-01T10:12:59.607Z,2.87
2019-06-01T10:15:27.020Z,27.40
2019-06-01T10:17:54.883Z,17.27
2019-06-01T10:20:22.268Z,8.70
2019-06-01T10:22:49.322Z,7.30
2019-06-01T10:25:16.776Z,3.13
2019-06-01T10:27:44.117Z,2.67
2019-06-01T10:30:12.116Z,2.10
2019-06-01T10:32:40.491Z,2.50
2019-06-01T10:35:08.057Z,2.57
2019-06-01T10:37:39.591Z,2.60
2019-06-01T10:40:07.165Z,2.07
2019-06-01T10:42:35.752Z,2.40
2019-06-01T10:45:04.100Z,3.97
2019-06-01T10:47:31.753Z,1.87
2019-06-01T10:50:01.137Z,2.40
2019-06-01T10:52:29.634Z,1.43
2019-06-01T10:54:57.344Z,1.73
2019-06-01T10:57:24.826Z,1.63
2019-06-01T10:59:51.921Z,1.97
2019-06-01T11:02:20.389Z,1.70
2019-06-01T11:04:48.666Z,1.50
2019-06-01T11:07:16.040Z,1.60
2019-06-01T11:09:43.589Z,2.27
2019-06-01T11:12:11.694Z,2.10
2019-06-01T11:14:39.120Z,9.50
2019-06-01T11:17:08.380Z,11.13
2019-06-01T11:19:35.628Z,7.67
2019-06-01T11:22:02.893Z,5.03
2019-06-01T11:24:30.226Z,2.93
2019-06-01T11:26:57.650Z,3.83
2019-06-01T11:29:24.904Z,2.73
2019-06-01T11:31:52.675Z,4.03
2019-06-01T11:34:19.910Z,2.13
2019-06-01T11:37:04.310Z,2.47
2019-06-01T11:39:17.073Z,2.43
2019-06-01T11:41:44.923Z,2.97
2019-06-01T11:44:12.123Z,1.83
2019-06-01T11:49:36.607Z,3.57
2019-06-01T11:52:04.288Z,1.83
2019-06-01T11:54:31.814Z,2.00
2019-06-01T11:56:59.439Z,1.90
2019-06-01T11:59:26.563Z,2.27
2019-06-01T12:01:54.509Z,2.43
2019-06-01T12:04:21.983Z,2.03
2019-06-01T12:06:50.717Z,2.20
2019-06-01T12:09:17.923Z,2.60
2019-06-01T12:11:46.423Z,2.53
2019-06-01T12:14:14.770Z,2.20
2019-06-01T12:16:43.125Z,3.10
2019-06-01T12:19:10.697Z,2.20
2019-06-01T12:21:38.893Z,2.37
2019-06-01T12:24:06.368Z,6.60
2019-06-01T12:26:33.762Z,2.10
2019-06-01T12:29:01.230Z,9.20
2019-06-01T12:31:28.907Z,1.70
2019-06-01T12:33:56.488Z,1.77
2019-06-01T12:36:24.008Z,1.47
2019-06-01T12:38:51.541Z,6.20
2019-06-01T12:41:20.062Z,2.40
2019-06-01T12:47:33.856Z,2.67
2019-06-01T12:50:01.494Z,1.87
2019-06-01T12:52:28.882Z,3.80
2019-06-01T12:54:57.041Z,1.70
2019-06-01T12:57:24.679Z,2.00
2019-06-01T12:59:53.136Z,2.00
2019-06-01T13:02:21.556Z,1.87
2019-06-01T13:04:49.212Z,1.87
2019-06-01T13:07:16.613Z,1.57
2019-06-01T13:09:43.997Z,1.70
2019-06-01T13:12:11.390Z,1.50
2019-06-01T13:14:39.605Z,1.47
2019-06-01T13:17:07.893Z,2.00
2019-06-01T13:19:36.205Z,2.30
2019-06-01T13:22:03.734Z,1.90
2019-06-01T13:24:31.097Z,2.40
2019-06-01T13:26:58.354Z,1.80
2019-06-01T13:29:26.780Z,1.90
2019-06-01T13:31:54.450Z,2.30
2019-06-01T13:34:21.546Z,2.03
2019-06-01T13:36:49.186Z,4.53
2019-06-01T13:39:16.782Z,3.23
2019-06-01T13:41:45.354Z,2.13
2019-06-01T13:44:12.669Z,2.63
2019-06-01T13:46:41.049Z,1.60
2019-06-01T13:49:08.425Z,1.87
2019-06-01T13:51:35.775Z,2.13
2019-06-01T13:54:03.660Z,2.30
2019-06-01T13:56:31.352Z,2.47
2019-06-01T13:58:58.530Z,2.13
2019-06-01T14:01:25.587Z,2.10
2019-06-01T14:03:54.129Z,3.63
2019-06-01T14:06:22.361Z,11.60
2019-06-01T14:08:51.038Z,16.97
2019-06-01T14:11:18.989Z,20.63
2019-06-01T14:13:47.388Z,19.33
2019-06-01T14:16:14.641Z,14.30
2019-06-01T14:18:45.519Z,11.83
2019-06-01T14:21:13.512Z,8.03
2019-06-01T14:23:40.629Z,7.73
2019-06-01T14:26:08.646Z,7.80
2019-06-01T14:28:35.806Z,5.43
2019-06-01T14:31:03.040Z,4.83
2019-06-01T14:33:31.501Z,3.37
2019-06-01T14:35:58.829Z,3.17
2019-06-01T14:38:27.700Z,2.30
2019-06-01T14:40:57.413Z,1.73
2019-06-01T14:43:24.883Z,2.67
2019-06-01T14:45:54.028Z,2.87
2019-06-01T14:48:21.472Z,2.30
2019-06-01T14:50:51.772Z,2.07
2019-06-01T14:53:19.031Z,2.63
2019-06-01T14:55:47.703Z,1.50
2019-06-01T14:58:14.965Z,1.80
2019-06-01T15:00:42.000Z,1.80
2019-06-01T15:03:12.308Z,2.23
2019-06-01T15:05:39.899Z,4.70
2019-06-01T15:08:08.206Z,2.83
2019-06-01T15:10:37.920Z,1.40
2019-06-01T15:13:05.406Z,1.87
2019-06-01T15:15:32.572Z,1.50
2019-06-01T15:18:03.906Z,1.83
2019-06-01T15:20:29.230Z,3.10
2019-06-01T15:22:56.722Z,1.90
2019-06-01T15:25:23.782Z,1.50
2019-06-01T15:27:52.599Z,1.73
2019-06-01T15:30:20.594Z,1.43
2019-06-01T15:32:47.976Z,3.57
2019-06-01T15:35:15.477Z,2.50
2019-06-01T15:37:42.759Z,12.40
2019-06-01T15:40:10.835Z,18.93
2019-06-01T15:42:38.718Z,18.47
2019-06-01T15:45:06.861Z,20.53
2019-06-01T15:47:34.306Z,17.73
2019-06-01T15:50:02.616Z,18.03
2019-06-01T15:52:30.376Z,13.63
2019-06-01T15:54:58.298Z,11.33
2019-06-01T15:57:25.635Z,9.80
2019-06-01T15:59:53.023Z,8.33
2019-06-01T16:02:20.399Z,6.17
2019-06-01T16:04:47.798Z,5.83
2019-06-01T16:07:14.962Z,5.20
2019-06-01T16:09:43.579Z,5.67
2019-06-01T16:12:10.772Z,3.57
2019-06-01T16:14:37.958Z,5.03
2019-06-01T16:17:05.285Z,3.30
2019-06-01T16:19:32.572Z,4.40
2019-06-01T16:22:00.328Z,6.10
2019-06-01T16:24:27.931Z,8.13
2019-06-01T16:26:56.314Z,9.93
2019-06-01T16:29:24.335Z,11.30
2019-06-01T16:31:51.503Z,12.30
2019-06-01T16:34:18.707Z,10.53
2019-06-01T16:36:45.811Z,6.97
2019-06-01T16:39:13.244Z,5.83
2019-06-01T16:41:40.714Z,4.87
2019-06-01T16:44:08.333Z,4.30
2019-06-01T16:46:35.636Z,3.40
2019-06-01T16:49:03.680Z,5.37
2019-06-01T16:51:53.986Z,3.10
2019-06-01T16:54:21.324Z,3.70
2019-06-01T16:56:48.691Z,2.50
2019-06-01T16:59:16.197Z,3.10
2019-06-01T17:01:43.697Z,3.43
2019-06-01T17:04:11.343Z,2.60
2019-06-01T17:06:39.674Z,2.67
2019-06-01T17:09:07.287Z,3.33
2019-06-01T17:11:35.042Z,4.50
2019-06-01T17:14:02.876Z,4.00
2019-06-01T17:16:30.800Z,6.90
2019-06-01T17:18:59.341Z,6.70
2019-06-01T17:21:26.948Z,7.60
2019-06-01T17:23:54.618Z,9.33
2019-06-01T17:26:21.858Z,9.00
2019-06-01T17:28:49.888Z,7.20
2019-06-01T17:31:18.358Z,7.73
2019-06-01T17:33:45.762Z,5.70
2019-06-01T17:36:13.028Z,6.17
2019-06-01T17:38:40.318Z,4.70
2019-06-01T17:41:08.453Z,5.47
2019-06-01T17:43:36.170Z,4.20
2019-06-01T17:46:05.195Z,3.77
2019-06-01T17:48:32.279Z,3.57
2019-06-01T17:51:00.374Z,3.57
2019-06-01T17:54:14.250Z,2.47
2019-06-01T17:56:41.501Z,4.23
2019-06-01T17:59:09.471Z,2.30
2019-06-01T18:01:37.446Z,2.53
2019-06-01T18:04:05.908Z,2.50
2019-06-01T18:06:33.209Z,3.83
2019-06-01T18:09:08.330Z,3.40
2019-06-01T18:11:35.911Z,2.27
2019-06-01T18:14:06.169Z,6.13
2019-06-01T18:16:33.546Z,3.20
2019-06-01T18:19:02.087Z,4.10
2019-06-01T18:21:29.402Z,5.33
2019-06-01T18:23:57.679Z,6.60
2019-06-01T18:26:25.158Z,7.87
2019-06-01T18:28:52.500Z,6.97
2019-06-01T18:31:19.762Z,7.40
2019-06-01T18:33:47.681Z,6.20
2019-06-01T18:36:15.107Z,6.53
2019-06-01T18:38:42.717Z,6.37
2019-06-01T18:41:18.587Z,6.30
2019-06-01T18:43:40.717Z,5.93
2019-06-01T18:46:08.389Z,4.90
2019-06-01T18:48:36.202Z,5.07
2019-06-01T18:51:08.141Z,4.57
2019-06-01T18:53:35.754Z,5.37
2019-06-01T18:56:04.127Z,4.67
2019-06-01T18:58:32.057Z,3.90
2019-06-01T19:01:00.880Z,7.53
2019-06-01T19:03:29.439Z,6.33
2019-06-01T19:05:56.868Z,3.97
2019-06-01T19:08:24.233Z,3.60
2019-06-01T19:10:51.910Z,6.63
2019-06-01T19:13:19.203Z,4.83
2019-06-01T19:15:47.782Z,6.10
2019-06-01T19:18:16.743Z,6.27
2019-06-01T19:20:44.822Z,6.87
2019-06-01T19:23:13.134Z,7.20
2019-06-01T19:25:40.691Z,11.93
2019-06-01T19:28:08.852Z,5.57
2019-06-01T19:30:40.464Z,5.27
2019-06-01T19:33:10.957Z,34.13
2019-06-01T19:35:39.092Z,33.60
2019-06-01T19:38:07.349Z,24.47
2019-06-01T19:40:39.736Z,16.43
2019-06-01T19:43:09.447Z,11.43
2019-06-01T19:45:37.071Z,7.80
2019-06-01T19:48:08.180Z,6.93
2019-06-01T19:50:37.914Z,7.23
2019-06-01T19:53:05.855Z,5.13
2019-06-01T19:55:33.098Z,5.30
2019-06-01T19:58:00.697Z,4.90
2019-06-01T20:00:28.180Z,4.77
2019-06-01T20:02:56.821Z,4.60
2019-06-01T20:05:24.144Z,6.20
2019-06-01T20:07:52.129Z,4.83
2019-06-01T20:10:19.313Z,6.40
2019-06-01T20:12:46.954Z,9.13
2019-06-01T20:15:15.497Z,6.93
2019-06-01T20:17:43.514Z,8.80
2019-06-01T20:20:11.217Z,8.67
2019-06-01T20:22:39.814Z,10.17
2019-06-01T20:25:07.230Z,11.10
2019-06-01T20:27:34.541Z,9.40
2019-06-01T20:30:02.279Z,6.30
2019-06-01T20:32:29.635Z,9.23
2019-06-01T20:34:56.693Z,5.43
2019-06-01T20:37:23.842Z,5.27
2019-06-01T20:39:50.874Z,4.63
2019-06-01T20:42:29.475Z,5.20
2019-06-01T20:44:47.269Z,5.10
2019-06-01T20:47:14.902Z,5.80
2019-06-01T20:49:42.323Z,3.50
2019-06-01T20:52:09.667Z,4.17
2019-06-01T20:54:37.142Z,6.43
2019-06-01T20:57:04.354Z,3.00
2019-06-01T20:59:31.566Z,2.97
2019-06-01T21:01:58.709Z,3.30
2019-06-01T21:04:26.023Z,4.73
2019-06-01T21:06:53.738Z,4.40
2019-06-01T21:09:22.013Z,7.30
2019-06-01T21:11:49.713Z,5.77
2019-06-01T21:17:02.264Z,3.90
2019-06-01T21:19:29.553Z,4.07
2019-06-01T21:21:56.894Z,3.70
2019-06-01T21:24:25.197Z,3.67
2019-06-01T21:26:52.400Z,4.83
2019-06-01T21:29:19.325Z,4.77
2019-06-01T21:31:46.970Z,3.53
2019-06-01T21:34:15.065Z,3.27
2019-06-01T21:36:42.299Z,3.30
2019-06-01T21:39:09.334Z,3.60
2019-06-01T21:41:36.877Z,3.70
2019-06-01T21:44:04.229Z,3.60
2019-06-01T21:46:32.015Z,3.80
2019-06-01T21:48:59.142Z,3.73
2019-06-01T21:51:26.683Z,4.83
2019-06-01T21:53:54.011Z,6.80
2019-06-01T21:56:22.732Z,6.43
2019-06-01T21:58:50.902Z,3.40
2019-06-01T22:01:18.985Z,3.70
2019-06-01T22:03:46.465Z,5.57
2019-06-01T22:06:14.163Z,7.43
2019-06-01T22:08:41.769Z,5.33
2019-06-01T22:11:09.250Z,3.50
2019-06-01T22:13:36.324Z,8.00
2019-06-01T22:16:03.551Z,7.07
2019-06-01T22:18:31.012Z,4.77
2019-06-01T22:20:58.553Z,4.97
2019-06-01T22:23:26.144Z,3.00
2019-06-01T22:25:53.754Z,5.07
2019-06-01T22:28:22.236Z,4.57
2019-06-01T22:30:49.921Z,4.87
2019-06-01T22:33:19.775Z,5.50
2019-06-01T22:35:46.270Z,4.03
2019-06-01T22:38:13.587Z,6.67
2019-06-01T22:40:40.994Z,5.00
2019-06-01T22:43:07.998Z,4.67
2019-06-01T22:45:35.012Z,4.57
2019-06-01T22:48:02.149Z,7.10
2019-06-01T22:50:29.199Z,4.90
2019-06-01T22:52:56.180Z,5.60
2019-06-01T22:55:24.339Z,4.80
2019-06-01T22:57:51.614Z,5.57
2019-06-01T23:00:18.860Z,5.70
2019-06-01T23:02:45.943Z,4.90
2019-06-01T23:05:13.435Z,5.00
2019-06-01T23:07:40.705Z,4.27
2019-06-01T23:10:07.853Z,4.33
2019-06-01T23:12:35.212Z,3.73
2019-06-01T23:15:02.475Z,5.53
2019-06-01T23:17:30.015Z,4.90
2019-06-01T23:19:57.623Z,7.30
2019-06-01T23:22:26.007Z,9.17
2019-06-01T23:24:53.019Z,4.20
2019-06-01T23:27:20.513Z,4.27
2019-06-01T23:29:47.713Z,6.60
2019-06-01T23:32:33.041Z,3.80
2019-06-01T23:35:18.202Z,5.30
2019-06-01T23:37:46.106Z,4.60
2019-06-01T23:40:13.704Z,5.87
2019-06-01T23:42:40.993Z,5.13
2019-06-01T23:45:08.069Z,6.87
2019-06-01T23:47:35.170Z,6.57
2019-06-01T23:50:02.707Z,6.83
2019-06-01T23:52:31.592Z,8.50
2019-06-01T23:54:58.893Z,12.83
2019-06-01T23:57:26.049Z,9.77
2019-06-01T23:59:53.173Z,5.10
